UAL185 PTPN-PKMJ
Flight info
| Callsign | UAL185 |
|---|---|
| Flight time | 1h 49m |
| Altitude | 39000 |
| Route | PNI STEFF MAJ |
| Aircraft | A339/H-SADE1E2E3GHIJ3J5M1P2RWXY/LB2D1 |
Departure
| Time | 2026-04-30 10:53 |
|---|---|
| Airport | Pohnpei International Airport (PTPN) |
Arrival
| Time | 2026-04-30 12:42 |
|---|---|
| Airport | Marshall Islands International Airport (PKMJ) |
| Time | Latitude | Longitude | Altitude | Speed | Heading |
|---|---|---|---|---|---|
| 2026-04-30 10:47 | 6.98200 | 158.20331 | 27 ft | 0 kts | 178° |
| 2026-04-30 10:48 | 6.98207 | 158.20330 | 27 ft | 2 kts | 186° |
| 2026-04-30 10:48 | 6.98218 | 158.20345 | 29 ft | 2 kts | 115° |
| 2026-04-30 10:48 | 6.98223 | 158.20329 | 28 ft | 2 kts | 292° |
| 2026-04-30 10:49 | 6.98222 | 158.20340 | 28 ft | 2 kts | 110° |
| 2026-04-30 10:49 | 6.98232 | 158.20329 | 26 ft | 0 kts | 350° |
| 2026-04-30 10:50 | 6.98234 | 158.20329 | 26 ft | 1 kts | 351° |
| 2026-04-30 10:50 | 6.98252 | 158.20335 | 29 ft | 6 kts | 21° |
| 2026-04-30 10:51 | 6.98323 | 158.20360 | 26 ft | 15 kts | 15° |
| 2026-04-30 10:51 | 6.98439 | 158.20367 | 24 ft | 22 kts | 355° |
| 2026-04-30 10:51 | 6.98508 | 158.20268 | 22 ft | 18 kts | 255° |
| 2026-04-30 10:51 | 6.98476 | 158.20136 | 25 ft | 22 kts | 264° |
| 2026-04-30 10:52 | 6.98566 | 158.20059 | 26 ft | 15 kts | 5° |
| 2026-04-30 10:52 | 6.98613 | 158.20098 | 17 ft | 5 kts | 78° |
| 2026-04-30 10:52 | 6.98518 | 158.20050 | 27 ft | 0 kts | 89° |
| 2026-04-30 10:52 | 6.98518 | 158.20088 | 26 ft | 32 kts | 90° |
| 2026-04-30 10:53 | 6.98513 | 158.20640 | 27 ft | 122 kts | 90° |
| 2026-04-30 10:53 | 6.98506 | 158.21727 | 180 ft | 176 kts | 90° |
| 2026-04-30 10:53 | 6.98559 | 158.23004 | 961 ft | 185 kts | 83° |
| 2026-04-30 10:53 | 6.98730 | 158.24400 | 1283 ft | 226 kts | 83° |
| 2026-04-30 10:54 | 6.98947 | 158.25951 | 2271 ft | 220 kts | 84° |
| 2026-04-30 10:54 | 6.99040 | 158.27539 | 2800 ft | 236 kts | 88° |
| 2026-04-30 10:54 | 6.99091 | 158.29236 | 3155 ft | 255 kts | 89° |
| 2026-04-30 10:54 | 6.99117 | 158.31061 | 3665 ft | 263 kts | 90° |
| 2026-04-30 10:55 | 6.99128 | 158.32908 | 4360 ft | 264 kts | 90° |
| 2026-04-30 10:55 | 6.99132 | 158.34754 | 4986 ft | 268 kts | 90° |
| 2026-04-30 10:55 | 6.99140 | 158.36680 | 5619 ft | 272 kts | 90° |
| 2026-04-30 10:55 | 6.99148 | 158.38570 | 6265 ft | 275 kts | 89° |
| 2026-04-30 10:56 | 6.99159 | 158.40505 | 6833 ft | 278 kts | 89° |
| 2026-04-30 10:56 | 6.99173 | 158.42471 | 7438 ft | 280 kts | 89° |
| 2026-04-30 10:56 | 6.99186 | 158.44452 | 8029 ft | 284 kts | 89° |
| 2026-04-30 10:56 | 6.99200 | 158.46459 | 8580 ft | 289 kts | 89° |
| 2026-04-30 10:57 | 6.99214 | 158.48492 | 9169 ft | 292 kts | 89° |
| 2026-04-30 10:57 | 6.99227 | 158.50547 | 9770 ft | 295 kts | 89° |
| 2026-04-30 10:57 | 6.99240 | 158.52618 | 10184 ft | 305 kts | 89° |
| 2026-04-30 10:57 | 6.99254 | 158.54816 | 10336 ft | 323 kts | 90° |
| 2026-04-30 10:58 | 6.99268 | 158.57138 | 10480 ft | 340 kts | 90° |
| 2026-04-30 10:58 | 6.99282 | 158.59563 | 10782 ft | 350 kts | 90° |
| 2026-04-30 10:58 | 6.99298 | 158.62019 | 11281 ft | 353 kts | 90° |
| 2026-04-30 10:58 | 6.99313 | 158.64505 | 11771 ft | 356 kts | 90° |
| 2026-04-30 10:59 | 6.99329 | 158.67006 | 12268 ft | 359 kts | 90° |
| 2026-04-30 10:59 | 6.99343 | 158.69545 | 12785 ft | 362 kts | 90° |
| 2026-04-30 10:59 | 6.99358 | 158.72092 | 13271 ft | 366 kts | 90° |
| 2026-04-30 10:59 | 6.99373 | 158.74663 | 13747 ft | 369 kts | 90° |
| 2026-04-30 11:00 | 6.99388 | 158.77256 | 14190 ft | 371 kts | 90° |
| 2026-04-30 11:00 | 6.99402 | 158.79868 | 14632 ft | 374 kts | 90° |
| 2026-04-30 11:00 | 6.99416 | 158.82461 | 15069 ft | 376 kts | 90° |
| 2026-04-30 11:00 | 6.99430 | 158.85104 | 15509 ft | 379 kts | 90° |
| 2026-04-30 11:01 | 6.99443 | 158.87763 | 15935 ft | 381 kts | 90° |
| 2026-04-30 11:01 | 6.99457 | 158.90439 | 16364 ft | 383 kts | 90° |
| 2026-04-30 11:01 | 6.99471 | 158.93135 | 16788 ft | 386 kts | 90° |
| 2026-04-30 11:01 | 6.99486 | 158.95850 | 17201 ft | 388 kts | 90° |
| 2026-04-30 11:02 | 6.99500 | 158.98577 | 17613 ft | 391 kts | 90° |
| 2026-04-30 11:02 | 6.99509 | 159.00390 | 17892 ft | 392 kts | 90° |
| 2026-04-30 11:02 | 6.99528 | 159.04052 | 18400 ft | 396 kts | 90° |
| 2026-04-30 11:02 | 6.99542 | 159.06826 | 18782 ft | 397 kts | 90° |
| 2026-04-30 11:03 | 6.99551 | 159.08708 | 19046 ft | 398 kts | 90° |
| 2026-04-30 11:03 | 6.99565 | 159.11504 | 19403 ft | 400 kts | 90° |
| 2026-04-30 11:03 | 6.99579 | 159.14285 | 19792 ft | 402 kts | 90° |
| 2026-04-30 11:04 | 6.99606 | 159.19942 | 20553 ft | 405 kts | 90° |
| 2026-04-30 11:04 | 6.99617 | 159.22778 | 20984 ft | 406 kts | 90° |
| 2026-04-30 11:04 | 6.99630 | 159.25632 | 21369 ft | 408 kts | 90° |
| 2026-04-30 11:04 | 6.99644 | 159.28489 | 21762 ft | 410 kts | 90° |
| 2026-04-30 11:05 | 6.99657 | 159.31333 | 22126 ft | 412 kts | 90° |
| 2026-04-30 11:05 | 6.99671 | 159.34260 | 22565 ft | 412 kts | 90° |
| 2026-04-30 11:05 | 6.99684 | 159.37120 | 22937 ft | 415 kts | 90° |
| 2026-04-30 11:05 | 6.99697 | 159.40036 | 23308 ft | 417 kts | 90° |
| 2026-04-30 11:06 | 6.99710 | 159.42961 | 23712 ft | 418 kts | 90° |
| 2026-04-30 11:06 | 6.99722 | 159.45897 | 23975 ft | 422 kts | 90° |
| 2026-04-30 11:06 | 6.99735 | 159.48863 | 24321 ft | 423 kts | 90° |
| 2026-04-30 11:06 | 6.99748 | 159.51824 | 24654 ft | 424 kts | 90° |
| 2026-04-30 11:07 | 6.99759 | 159.54808 | 24966 ft | 427 kts | 90° |
| 2026-04-30 11:07 | 6.99772 | 159.57800 | 25316 ft | 428 kts | 90° |
| 2026-04-30 11:07 | 6.99784 | 159.60764 | 25618 ft | 430 kts | 90° |
| 2026-04-30 11:07 | 6.99796 | 159.63817 | 25947 ft | 432 kts | 90° |
| 2026-04-30 11:08 | 6.99808 | 159.66805 | 26271 ft | 433 kts | 90° |
| 2026-04-30 11:08 | 6.99819 | 159.69849 | 26578 ft | 435 kts | 90° |
| 2026-04-30 11:08 | 6.99831 | 159.72896 | 26891 ft | 437 kts | 90° |
| 2026-04-30 11:08 | 6.99842 | 159.75964 | 27204 ft | 439 kts | 90° |
| 2026-04-30 11:09 | 6.99853 | 159.79038 | 27514 ft | 440 kts | 90° |
| 2026-04-30 11:09 | 6.99864 | 159.82135 | 27821 ft | 442 kts | 90° |
| 2026-04-30 11:09 | 6.99875 | 159.85241 | 28121 ft | 444 kts | 90° |
| 2026-04-30 11:09 | 6.99886 | 159.88359 | 28418 ft | 446 kts | 90° |
| 2026-04-30 11:10 | 6.99896 | 159.91487 | 28713 ft | 447 kts | 90° |
| 2026-04-30 11:10 | 6.99906 | 159.94592 | 28998 ft | 449 kts | 90° |
| 2026-04-30 11:10 | 6.99917 | 159.97743 | 29287 ft | 451 kts | 90° |
| 2026-04-30 11:10 | 6.99927 | 160.00906 | 29573 ft | 453 kts | 90° |
| 2026-04-30 11:11 | 6.99936 | 160.04089 | 29865 ft | 455 kts | 90° |
| 2026-04-30 11:11 | 6.99946 | 160.07276 | 30131 ft | 457 kts | 90° |
| 2026-04-30 11:11 | 6.99955 | 160.10476 | 30391 ft | 458 kts | 90° |
| 2026-04-30 11:11 | 6.99965 | 160.13692 | 30660 ft | 460 kts | 90° |
| 2026-04-30 11:12 | 6.99974 | 160.16923 | 30931 ft | 462 kts | 90° |
| 2026-04-30 11:12 | 6.99983 | 160.20158 | 31194 ft | 463 kts | 90° |
| 2026-04-30 11:12 | 6.99991 | 160.23378 | 31424 ft | 466 kts | 90° |
| 2026-04-30 11:12 | 7.00000 | 160.26653 | 31693 ft | 468 kts | 90° |
| 2026-04-30 11:13 | 7.00009 | 160.29937 | 31950 ft | 469 kts | 90° |
| 2026-04-30 11:13 | 7.00017 | 160.33222 | 32198 ft | 471 kts | 90° |
| 2026-04-30 11:13 | 7.00025 | 160.36525 | 32423 ft | 472 kts | 90° |
| 2026-04-30 11:13 | 7.00033 | 160.39837 | 32624 ft | 474 kts | 90° |
| 2026-04-30 11:14 | 7.00040 | 160.43157 | 32803 ft | 475 kts | 90° |
| 2026-04-30 11:14 | 7.00048 | 160.46491 | 32967 ft | 476 kts | 90° |
| 2026-04-30 11:14 | 7.00055 | 160.49832 | 33115 ft | 477 kts | 90° |
| 2026-04-30 11:14 | 7.00062 | 160.53179 | 33234 ft | 478 kts | 90° |
| 2026-04-30 11:15 | 7.00068 | 160.56492 | 33326 ft | 480 kts | 90° |
| 2026-04-30 11:15 | 7.00074 | 160.59900 | 33443 ft | 481 kts | 90° |
| 2026-04-30 11:15 | 7.00081 | 160.63263 | 33592 ft | 480 kts | 90° |
| 2026-04-30 11:15 | 7.00087 | 160.66586 | 33741 ft | 480 kts | 90° |
| 2026-04-30 11:16 | 7.00093 | 160.69943 | 33892 ft | 480 kts | 90° |
| 2026-04-30 11:16 | 7.00098 | 160.73304 | 34024 ft | 479 kts | 90° |
| 2026-04-30 11:16 | 7.00104 | 160.76664 | 34158 ft | 479 kts | 90° |
| 2026-04-30 11:16 | 7.00109 | 160.80020 | 34291 ft | 478 kts | 90° |
| 2026-04-30 11:17 | 7.00113 | 160.83367 | 34433 ft | 478 kts | 90° |
| 2026-04-30 11:17 | 7.00118 | 160.86710 | 34554 ft | 478 kts | 90° |
| 2026-04-30 11:17 | 7.00122 | 160.90053 | 34658 ft | 478 kts | 90° |
| 2026-04-30 11:17 | 7.00126 | 160.93403 | 34765 ft | 479 kts | 90° |
| 2026-04-30 11:18 | 7.00130 | 160.96751 | 34884 ft | 478 kts | 90° |
| 2026-04-30 11:18 | 7.00137 | 161.03404 | 35159 ft | 478 kts | 90° |
| 2026-04-30 11:18 | 7.00140 | 161.06746 | 35295 ft | 477 kts | 90° |
| 2026-04-30 11:19 | 7.00143 | 161.10076 | 35436 ft | 477 kts | 90° |
| 2026-04-30 11:19 | 7.00146 | 161.13420 | 35581 ft | 477 kts | 90° |
| 2026-04-30 11:19 | 7.00148 | 161.16761 | 35734 ft | 476 kts | 90° |
| 2026-04-30 11:19 | 7.00150 | 161.20093 | 35887 ft | 476 kts | 90° |
| 2026-04-30 11:20 | 7.00152 | 161.23427 | 36041 ft | 476 kts | 90° |
| 2026-04-30 11:20 | 7.00154 | 161.26765 | 36189 ft | 476 kts | 90° |
| 2026-04-30 11:20 | 7.00155 | 161.30098 | 36331 ft | 476 kts | 90° |
| 2026-04-30 11:20 | 7.00157 | 161.33430 | 36538 ft | 474 kts | 90° |
| 2026-04-30 11:21 | 7.00158 | 161.36751 | 36679 ft | 475 kts | 90° |
| 2026-04-30 11:21 | 7.00159 | 161.40072 | 36885 ft | 473 kts | 90° |
| 2026-04-30 11:21 | 7.00159 | 161.43346 | 37062 ft | 473 kts | 90° |
| 2026-04-30 11:21 | 7.00159 | 161.46660 | 37217 ft | 473 kts | 90° |
| 2026-04-30 11:22 | 7.00160 | 161.49976 | 37413 ft | 472 kts | 90° |
| 2026-04-30 11:22 | 7.00159 | 161.53295 | 37548 ft | 473 kts | 90° |
| 2026-04-30 11:22 | 7.00159 | 161.56603 | 37779 ft | 471 kts | 90° |
| 2026-04-30 11:22 | 7.00158 | 161.59869 | 37877 ft | 472 kts | 90° |
| 2026-04-30 11:23 | 7.00157 | 161.63164 | 38013 ft | 472 kts | 90° |
| 2026-04-30 11:23 | 7.00156 | 161.66482 | 38199 ft | 472 kts | 90° |
| 2026-04-30 11:23 | 7.00153 | 161.73103 | 38505 ft | 471 kts | 90° |
| 2026-04-30 11:24 | 7.00152 | 161.76402 | 38605 ft | 472 kts | 90° |
| 2026-04-30 11:24 | 7.00150 | 161.79705 | 38786 ft | 470 kts | 90° |
| 2026-04-30 11:24 | 7.00148 | 161.83000 | 38868 ft | 470 kts | 90° |
| 2026-04-30 11:25 | 7.00139 | 161.92887 | 38910 ft | 471 kts | 90° |
| 2026-04-30 11:26 | 7.00125 | 162.06020 | 38906 ft | 470 kts | 90° |
| 2026-04-30 11:26 | 7.00117 | 162.12608 | 38904 ft | 470 kts | 90° |
| 2026-04-30 11:27 | 7.00107 | 162.19203 | 38909 ft | 471 kts | 90° |
| 2026-04-30 11:27 | 7.00097 | 162.25766 | 38910 ft | 471 kts | 90° |
| 2026-04-30 11:28 | 7.00080 | 162.35730 | 38908 ft | 475 kts | 90° |
| 2026-04-30 11:29 | 7.00067 | 162.42377 | 38906 ft | 475 kts | 90° |
| 2026-04-30 11:29 | 7.00047 | 162.52327 | 38906 ft | 475 kts | 90° |
| 2026-04-30 11:30 | 7.00024 | 162.62299 | 38893 ft | 475 kts | 90° |
| 2026-04-30 11:31 | 7.00008 | 162.68981 | 38907 ft | 479 kts | 90° |
| 2026-04-30 11:31 | 6.99990 | 162.75691 | 38907 ft | 478 kts | 90° |
| 2026-04-30 11:32 | 6.99972 | 162.82383 | 38907 ft | 478 kts | 90° |
| 2026-04-30 11:32 | 6.99953 | 162.89050 | 38906 ft | 478 kts | 90° |
| 2026-04-30 11:33 | 6.99923 | 162.99101 | 38896 ft | 479 kts | 90° |
| 2026-04-30 11:33 | 6.99901 | 163.05810 | 38905 ft | 480 kts | 90° |
| 2026-04-30 11:34 | 6.99878 | 163.12528 | 38903 ft | 480 kts | 90° |
| 2026-04-30 11:34 | 6.99854 | 163.19216 | 38913 ft | 480 kts | 90° |
| 2026-04-30 11:35 | 6.99830 | 163.25959 | 38904 ft | 481 kts | 90° |
| 2026-04-30 11:35 | 6.99806 | 163.32697 | 38910 ft | 481 kts | 91° |
| 2026-04-30 11:36 | 6.99780 | 163.39405 | 38899 ft | 481 kts | 91° |
| 2026-04-30 11:36 | 6.99751 | 163.46149 | 38908 ft | 481 kts | 91° |
| 2026-04-30 11:37 | 6.99723 | 163.52833 | 38897 ft | 481 kts | 91° |
| 2026-04-30 11:37 | 6.99694 | 163.59569 | 38899 ft | 481 kts | 91° |
| 2026-04-30 11:38 | 6.99663 | 163.66294 | 38907 ft | 480 kts | 91° |
| 2026-04-30 11:38 | 6.99634 | 163.72992 | 38900 ft | 478 kts | 91° |
| 2026-04-30 11:39 | 6.99602 | 163.79694 | 38899 ft | 479 kts | 91° |
| 2026-04-30 11:39 | 6.99570 | 163.86389 | 38899 ft | 478 kts | 91° |
| 2026-04-30 11:40 | 6.99535 | 163.93054 | 38899 ft | 478 kts | 91° |
| 2026-04-30 11:40 | 6.99500 | 163.99770 | 38907 ft | 479 kts | 91° |
| 2026-04-30 11:41 | 6.99465 | 164.06469 | 38899 ft | 476 kts | 91° |
| 2026-04-30 11:41 | 6.99428 | 164.13135 | 38898 ft | 477 kts | 91° |
| 2026-04-30 11:42 | 6.99390 | 164.19816 | 38900 ft | 477 kts | 91° |
| 2026-04-30 11:42 | 6.99352 | 164.26489 | 38902 ft | 477 kts | 91° |
| 2026-04-30 11:43 | 6.99312 | 164.33142 | 38900 ft | 477 kts | 91° |
| 2026-04-30 11:43 | 6.99272 | 164.39813 | 38893 ft | 477 kts | 91° |
| 2026-04-30 11:44 | 6.99230 | 164.46497 | 38898 ft | 477 kts | 91° |
| 2026-04-30 11:44 | 6.99189 | 164.53158 | 38895 ft | 477 kts | 91° |
| 2026-04-30 11:45 | 6.99144 | 164.59855 | 38892 ft | 477 kts | 91° |
| 2026-04-30 11:45 | 6.99100 | 164.66501 | 38889 ft | 477 kts | 91° |
| 2026-04-30 11:46 | 6.99054 | 164.73193 | 38897 ft | 477 kts | 91° |
| 2026-04-30 11:46 | 6.99007 | 164.79878 | 38897 ft | 477 kts | 91° |
| 2026-04-30 11:47 | 6.98960 | 164.86565 | 38897 ft | 477 kts | 91° |
| 2026-04-30 11:47 | 6.98913 | 164.93252 | 38895 ft | 477 kts | 91° |
| 2026-04-30 11:48 | 6.98865 | 164.99890 | 38893 ft | 477 kts | 91° |
| 2026-04-30 11:48 | 6.98816 | 165.06617 | 38892 ft | 478 kts | 91° |
| 2026-04-30 11:49 | 6.98765 | 165.13264 | 38900 ft | 477 kts | 91° |
| 2026-04-30 11:49 | 6.98714 | 165.19928 | 38891 ft | 477 kts | 91° |
| 2026-04-30 11:50 | 6.98664 | 165.26615 | 38897 ft | 477 kts | 91° |
| 2026-04-30 11:50 | 6.98712 | 165.32169 | 38893 ft | 477 kts | 90° |
| 2026-04-30 11:51 | 6.98835 | 165.39952 | 38899 ft | 477 kts | 90° |
| 2026-04-30 11:51 | 6.98909 | 165.45539 | 38897 ft | 474 kts | 90° |
| 2026-04-30 11:52 | 6.98988 | 165.52181 | 38896 ft | 475 kts | 90° |
| 2026-04-30 11:52 | 6.99065 | 165.58792 | 38893 ft | 475 kts | 90° |
| 2026-04-30 11:53 | 6.99142 | 165.65447 | 38891 ft | 475 kts | 90° |
| 2026-04-30 11:53 | 6.99218 | 165.72113 | 38892 ft | 475 kts | 90° |
| 2026-04-30 11:54 | 6.99293 | 165.78720 | 38893 ft | 475 kts | 90° |
| 2026-04-30 11:54 | 6.99367 | 165.85391 | 38897 ft | 475 kts | 90° |
| 2026-04-30 11:55 | 6.99439 | 165.92053 | 38892 ft | 476 kts | 90° |
| 2026-04-30 11:55 | 6.99511 | 165.98710 | 38894 ft | 476 kts | 90° |
| 2026-04-30 11:56 | 6.99582 | 166.05344 | 38902 ft | 476 kts | 90° |
| 2026-04-30 11:56 | 6.99652 | 166.12019 | 38897 ft | 476 kts | 90° |
| 2026-04-30 11:57 | 6.99721 | 166.18681 | 38895 ft | 476 kts | 90° |
| 2026-04-30 11:57 | 6.99791 | 166.25355 | 38885 ft | 477 kts | 90° |
| 2026-04-30 11:58 | 6.99857 | 166.31991 | 38887 ft | 477 kts | 90° |
| 2026-04-30 11:58 | 6.99923 | 166.38663 | 38889 ft | 477 kts | 90° |
| 2026-04-30 11:59 | 6.99989 | 166.45336 | 38893 ft | 476 kts | 90° |
| 2026-04-30 11:59 | 7.00055 | 166.52010 | 38888 ft | 477 kts | 90° |
| 2026-04-30 12:00 | 7.00121 | 166.58683 | 38901 ft | 476 kts | 91° |
| 2026-04-30 12:00 | 7.00182 | 166.65362 | 38890 ft | 476 kts | 90° |
| 2026-04-30 12:01 | 7.00243 | 166.72025 | 38888 ft | 476 kts | 91° |
| 2026-04-30 12:01 | 7.00303 | 166.78702 | 38894 ft | 476 kts | 91° |
| 2026-04-30 12:02 | 7.00364 | 166.85338 | 38895 ft | 476 kts | 91° |
| 2026-04-30 12:02 | 7.00427 | 166.91969 | 38889 ft | 468 kts | 90° |
| 2026-04-30 12:03 | 7.00509 | 167.01846 | 38892 ft | 472 kts | 91° |
| 2026-04-30 12:04 | 7.00563 | 167.08436 | 38891 ft | 471 kts | 91° |
| 2026-04-30 12:04 | 7.00623 | 167.14993 | 38895 ft | 470 kts | 91° |
| 2026-04-30 12:05 | 7.00678 | 167.21562 | 38886 ft | 472 kts | 91° |
| 2026-04-30 12:05 | 7.00727 | 167.28175 | 38888 ft | 473 kts | 91° |
| 2026-04-30 12:06 | 7.00779 | 167.34813 | 38894 ft | 474 kts | 91° |
| 2026-04-30 12:06 | 7.00832 | 167.41450 | 38903 ft | 474 kts | 91° |
| 2026-04-30 12:07 | 7.00881 | 167.48095 | 38899 ft | 474 kts | 91° |
| 2026-04-30 12:07 | 7.00931 | 167.54752 | 38893 ft | 474 kts | 91° |
| 2026-04-30 12:08 | 7.00981 | 167.61342 | 38889 ft | 473 kts | 91° |
| 2026-04-30 12:08 | 7.01031 | 167.67945 | 38886 ft | 469 kts | 91° |
| 2026-04-30 12:09 | 7.01075 | 167.74541 | 38891 ft | 471 kts | 91° |
| 2026-04-30 12:09 | 7.01124 | 167.81131 | 38885 ft | 471 kts | 91° |
| 2026-04-30 12:10 | 7.01170 | 167.87680 | 38891 ft | 471 kts | 91° |
| 2026-04-30 12:10 | 7.01213 | 167.94274 | 38885 ft | 470 kts | 91° |
| 2026-04-30 12:11 | 7.01252 | 168.00906 | 38885 ft | 476 kts | 91° |
| 2026-04-30 12:11 | 7.01294 | 168.07544 | 38886 ft | 477 kts | 91° |
| 2026-04-30 12:12 | 7.01335 | 168.14223 | 38888 ft | 477 kts | 91° |
| 2026-04-30 12:12 | 7.01376 | 168.20916 | 38891 ft | 477 kts | 91° |
| 2026-04-30 12:13 | 7.01417 | 168.27594 | 38884 ft | 477 kts | 91° |
| 2026-04-30 12:13 | 7.01455 | 168.34264 | 38885 ft | 477 kts | 90° |
| 2026-04-30 12:14 | 7.01504 | 168.40973 | 38889 ft | 481 kts | 90° |
| 2026-04-30 12:14 | 7.01553 | 168.47662 | 38889 ft | 480 kts | 90° |
| 2026-04-30 12:14 | 7.01571 | 168.51030 | 38742 ft | 480 kts | 90° |
| 2026-04-30 12:15 | 7.01591 | 168.54392 | 38511 ft | 478 kts | 90° |
| 2026-04-30 12:15 | 7.01621 | 168.57740 | 38245 ft | 478 kts | 90° |
| 2026-04-30 12:15 | 7.01651 | 168.61045 | 37982 ft | 479 kts | 90° |
| 2026-04-30 12:15 | 7.01675 | 168.64402 | 37721 ft | 480 kts | 90° |
| 2026-04-30 12:16 | 7.01691 | 168.67764 | 37466 ft | 480 kts | 90° |
| 2026-04-30 12:16 | 7.01701 | 168.71127 | 37207 ft | 480 kts | 91° |
| 2026-04-30 12:16 | 7.01707 | 168.74490 | 36954 ft | 480 kts | 91° |
| 2026-04-30 12:16 | 7.01718 | 168.77846 | 36705 ft | 481 kts | 91° |
| 2026-04-30 12:17 | 7.01742 | 168.84602 | 36214 ft | 482 kts | 91° |
| 2026-04-30 12:17 | 7.01757 | 168.87975 | 35972 ft | 482 kts | 91° |
| 2026-04-30 12:17 | 7.01771 | 168.91360 | 35730 ft | 483 kts | 91° |
| 2026-04-30 12:18 | 7.01785 | 168.94699 | 35501 ft | 483 kts | 91° |
| 2026-04-30 12:18 | 7.01799 | 168.98085 | 35265 ft | 484 kts | 90° |
| 2026-04-30 12:18 | 7.01813 | 169.01476 | 35033 ft | 484 kts | 91° |
| 2026-04-30 12:18 | 7.01827 | 169.04870 | 34801 ft | 485 kts | 90° |
| 2026-04-30 12:19 | 7.01841 | 169.08271 | 34573 ft | 485 kts | 90° |
| 2026-04-30 12:19 | 7.01855 | 169.11675 | 34347 ft | 486 kts | 91° |
| 2026-04-30 12:19 | 7.01867 | 169.15083 | 34120 ft | 486 kts | 91° |
| 2026-04-30 12:19 | 7.01882 | 169.18500 | 33894 ft | 487 kts | 90° |
| 2026-04-30 12:20 | 7.01894 | 169.21873 | 33643 ft | 487 kts | 90° |
| 2026-04-30 12:20 | 7.01905 | 169.25292 | 33389 ft | 488 kts | 91° |
| 2026-04-30 12:20 | 7.01917 | 169.28700 | 33139 ft | 487 kts | 90° |
| 2026-04-30 12:20 | 7.01929 | 169.32113 | 32880 ft | 488 kts | 90° |
| 2026-04-30 12:21 | 7.01942 | 169.35533 | 32642 ft | 487 kts | 90° |
| 2026-04-30 12:21 | 7.01959 | 169.38948 | 32404 ft | 488 kts | 90° |
| 2026-04-30 12:21 | 7.01982 | 169.42368 | 32154 ft | 487 kts | 90° |
| 2026-04-30 12:21 | 7.01998 | 169.45790 | 31913 ft | 488 kts | 90° |
| 2026-04-30 12:22 | 7.02011 | 169.49154 | 31678 ft | 488 kts | 90° |
| 2026-04-30 12:22 | 7.02027 | 169.52570 | 31433 ft | 486 kts | 90° |
| 2026-04-30 12:22 | 7.02039 | 169.55979 | 31197 ft | 485 kts | 90° |
| 2026-04-30 12:22 | 7.02055 | 169.59360 | 30971 ft | 482 kts | 90° |
| 2026-04-30 12:23 | 7.02060 | 169.62733 | 30746 ft | 481 kts | 90° |
| 2026-04-30 12:23 | 7.02052 | 169.66101 | 30511 ft | 478 kts | 90° |
| 2026-04-30 12:23 | 7.02045 | 169.69442 | 30283 ft | 475 kts | 90° |
| 2026-04-30 12:23 | 7.02046 | 169.72769 | 30060 ft | 475 kts | 90° |
| 2026-04-30 12:24 | 7.02052 | 169.76082 | 29724 ft | 470 kts | 90° |
| 2026-04-30 12:24 | 7.02062 | 169.79370 | 28923 ft | 471 kts | 90° |
| 2026-04-30 12:24 | 7.02079 | 169.82655 | 28300 ft | 467 kts | 90° |
| 2026-04-30 12:24 | 7.02095 | 169.85904 | 27622 ft | 462 kts | 90° |
| 2026-04-30 12:25 | 7.02108 | 169.89081 | 26951 ft | 457 kts | 89° |
| 2026-04-30 12:25 | 7.02117 | 169.92291 | 26238 ft | 454 kts | 89° |
| 2026-04-30 12:25 | 7.02125 | 169.95460 | 25535 ft | 451 kts | 89° |
| 2026-04-30 12:25 | 7.02123 | 169.98598 | 24855 ft | 447 kts | 90° |
| 2026-04-30 12:26 | 7.02099 | 170.01721 | 24181 ft | 444 kts | 90° |
| 2026-04-30 12:26 | 7.02090 | 170.04817 | 23551 ft | 440 kts | 90° |
| 2026-04-30 12:26 | 7.02091 | 170.07892 | 22827 ft | 436 kts | 90° |
| 2026-04-30 12:26 | 7.02085 | 170.10928 | 22163 ft | 430 kts | 90° |
| 2026-04-30 12:27 | 7.02078 | 170.13924 | 21512 ft | 424 kts | 90° |
| 2026-04-30 12:27 | 7.02088 | 170.16839 | 20847 ft | 420 kts | 90° |
| 2026-04-30 12:27 | 7.02101 | 170.19762 | 20139 ft | 416 kts | 90° |
| 2026-04-30 12:27 | 7.02118 | 170.22650 | 19496 ft | 410 kts | 89° |
| 2026-04-30 12:28 | 7.02146 | 170.25511 | 18856 ft | 405 kts | 90° |
| 2026-04-30 12:28 | 7.02158 | 170.28339 | 18222 ft | 401 kts | 90° |
| 2026-04-30 12:28 | 7.02162 | 170.31137 | 17547 ft | 395 kts | 90° |
| 2026-04-30 12:28 | 7.02155 | 170.33870 | 16922 ft | 388 kts | 90° |
| 2026-04-30 12:29 | 7.02156 | 170.36570 | 16293 ft | 381 kts | 90° |
| 2026-04-30 12:29 | 7.02172 | 170.39219 | 15626 ft | 376 kts | 89° |
| 2026-04-30 12:29 | 7.02195 | 170.41840 | 15044 ft | 369 kts | 89° |
| 2026-04-30 12:29 | 7.02231 | 170.44397 | 14390 ft | 364 kts | 89° |
| 2026-04-30 12:30 | 7.02273 | 170.46889 | 13819 ft | 357 kts | 89° |
| 2026-04-30 12:30 | 7.02276 | 170.49375 | 13213 ft | 351 kts | 91° |
| 2026-04-30 12:30 | 7.02234 | 170.51805 | 12643 ft | 343 kts | 92° |
| 2026-04-30 12:30 | 7.02189 | 170.54185 | 12080 ft | 336 kts | 91° |
| 2026-04-30 12:31 | 7.02165 | 170.56517 | 11516 ft | 330 kts | 91° |
| 2026-04-30 12:31 | 7.02158 | 170.58807 | 10942 ft | 325 kts | 90° |
| 2026-04-30 12:31 | 7.02161 | 170.61059 | 10414 ft | 320 kts | 90° |
| 2026-04-30 12:31 | 7.02168 | 170.63282 | 10137 ft | 310 kts | 90° |
| 2026-04-30 12:32 | 7.02177 | 170.65395 | 9985 ft | 292 kts | 90° |
| 2026-04-30 12:32 | 7.02185 | 170.67366 | 9788 ft | 277 kts | 90° |
| 2026-04-30 12:32 | 7.02193 | 170.69285 | 9667 ft | 280 kts | 90° |
| 2026-04-30 12:32 | 7.02198 | 170.71274 | 9539 ft | 283 kts | 90° |
| 2026-04-30 12:33 | 7.02203 | 170.73241 | 9233 ft | 279 kts | 90° |
| 2026-04-30 12:33 | 7.02208 | 170.75169 | 8851 ft | 272 kts | 90° |
| 2026-04-30 12:33 | 7.02214 | 170.77039 | 8480 ft | 263 kts | 90° |
| 2026-04-30 12:33 | 7.02227 | 170.78843 | 8127 ft | 253 kts | 89° |
| 2026-04-30 12:34 | 7.02249 | 170.80579 | 7771 ft | 244 kts | 89° |
| 2026-04-30 12:34 | 7.02265 | 170.82297 | 7444 ft | 255 kts | 90° |
| 2026-04-30 12:34 | 7.02275 | 170.84172 | 7055 ft | 275 kts | 90° |
| 2026-04-30 12:34 | 7.02278 | 170.86103 | 6862 ft | 271 kts | 90° |
| 2026-04-30 12:35 | 7.02281 | 170.87345 | 6675 ft | 266 kts | 90° |
| 2026-04-30 12:35 | 7.02280 | 170.89200 | 6154 ft | 263 kts | 90° |
| 2026-04-30 12:35 | 7.02272 | 170.91036 | 5601 ft | 260 kts | 90° |
| 2026-04-30 12:35 | 7.02270 | 170.93362 | 5159 ft | 242 kts | 88° |
| 2026-04-30 12:36 | 7.02301 | 170.94491 | 4933 ft | 236 kts | 87° |
| 2026-04-30 12:36 | 7.02329 | 170.96089 | 4655 ft | 227 kts | 90° |
| 2026-04-30 12:36 | 7.02305 | 170.97815 | 4269 ft | 258 kts | 90° |
| 2026-04-30 12:36 | 7.02278 | 170.99627 | 4034 ft | 262 kts | 90° |
| 2026-04-30 12:37 | 7.02244 | 171.01455 | 3789 ft | 255 kts | 90° |
| 2026-04-30 12:37 | 7.02219 | 171.03199 | 3242 ft | 253 kts | 89° |
| 2026-04-30 12:37 | 7.02207 | 171.04966 | 2763 ft | 246 kts | 89° |
| 2026-04-30 12:37 | 7.02201 | 171.06643 | 2408 ft | 234 kts | 89° |
| 2026-04-30 12:38 | 7.02201 | 171.08244 | 2080 ft | 224 kts | 88° |
| 2026-04-30 12:38 | 7.02228 | 171.09788 | 1766 ft | 218 kts | 84° |
| 2026-04-30 12:38 | 7.02515 | 171.11343 | 1695 ft | 231 kts | 75° |
| 2026-04-30 12:38 | 7.02922 | 171.12853 | 1616 ft | 215 kts | 74° |
| 2026-04-30 12:39 | 7.03291 | 171.14248 | 1610 ft | 196 kts | 74° |
| 2026-04-30 12:39 | 7.03617 | 171.15506 | 1585 ft | 175 kts | 75° |
| 2026-04-30 12:39 | 7.03894 | 171.16618 | 1593 ft | 153 kts | 76° |
| 2026-04-30 12:39 | 7.04130 | 171.17599 | 1597 ft | 143 kts | 76° |
| 2026-04-30 12:40 | 7.04374 | 171.18614 | 1571 ft | 147 kts | 75° |
| 2026-04-30 12:40 | 7.04605 | 171.19578 | 1452 ft | 141 kts | 75° |
| 2026-04-30 12:40 | 7.04832 | 171.20501 | 1401 ft | 129 kts | 73° |
| 2026-04-30 12:40 | 7.05041 | 171.21304 | 1403 ft | 120 kts | 73° |
| 2026-04-30 12:41 | 7.05260 | 171.22139 | 1398 ft | 121 kts | 74° |
| 2026-04-30 12:41 | 7.05482 | 171.22968 | 1400 ft | 124 kts | 76° |
| 2026-04-30 12:41 | 7.05740 | 171.23890 | 710 ft | 148 kts | 74° |
| 2026-04-30 12:41 | 7.05959 | 171.24879 | 358 ft | 137 kts | 75° |
| 2026-04-30 12:42 | 7.06180 | 171.25744 | 112 ft | 121 kts | 77° |
| 2026-04-30 12:42 | 7.06354 | 171.26595 | 13 ft | 123 kts | 76° |
| 2026-04-30 12:42 | 7.06498 | 171.27195 | 10 ft | 37 kts | 76° |
| 2026-04-30 12:42 | 7.06557 | 171.27423 | 10 ft | 31 kts | 74° |
| 2026-04-30 12:43 | 7.06609 | 171.27623 | 9 ft | 28 kts | 77° |
| 2026-04-30 12:43 | 7.06645 | 171.27773 | 11 ft | 24 kts | 76° |
| 2026-04-30 12:43 | 7.06687 | 171.27935 | 10 ft | 23 kts | 75° |
| 2026-04-30 12:43 | 7.06750 | 171.28054 | 11 ft | 16 kts | 24° |
| 2026-04-30 12:44 | 7.06810 | 171.28049 | 13 ft | 0 kts | 351° |